Latest Coastal Weather Observations for Dennes Point

IDT60701

Issued at 11:52 am EST Sunday 5 July 2020 (issued every 10 minutes, with the page automatically refreshed every 10 minutes)

About coastal observations | Map of coastal stations | Coastal observations for TAS | Marine services | Other Formats
Station Details ID: 094255 Name: DENNES POINT Lat: -43.06 Lon: 147.36 Height: 5.67 m
Data from the previous 72 hours. | See also: Recent months at Dennes Point
Date/Time
EST
Wind Sea
Height
m
Swell Vis
km
Cloud Weather Temp
°C
Press
hPa
Rain since
9am
mm
Dir  Spd
kts
Gust
kts
Height
m
Period
s
Dir
05/11:30am SW 7 9 - - - - - - - 12.4 1020.6 0.0
05/11:00am SSW 5 7 - - - - - - - 11.8 1020.5 0.0
05/10:30am SSW 6 9 - - - - - - - 10.9 1020.5 0.0
05/10:00am SSW 4 6 - - - - - - - 10.9 1020.6 0.0
05/09:30am SW 5 7 - - - - - - - 10.6 1020.2 0.0
05/09:00am SW 8 10 - - - - - - - 10.6 1019.7 0.4
05/08:30am SW 9 11 - - - - - - - 10.4 1019.5 0.4
05/08:00am SW 8 11 - - - - - - - 10.0 1019.1 0.4
05/07:30am SW 7 9 - - - - - - - 9.5 1018.5 0.4
05/07:00am SW 7 9 - - - - - - - 10.0 1018.2 0.4
05/06:30am SSW 5 7 - - - - - - - 9.8 1017.9 0.4
05/06:00am SSW 5 6 - - - - - - - 9.9 1017.7 0.4
05/05:30am SSW 2 3 - - - - - - - 9.6 1017.4 0.4
05/05:00am SW 6 10 - - - - - - - 9.9 1017.1 0.4
05/04:30am SSW 6 9 - - - - - - - 9.8 1017.2 0.4
05/04:00am SSW 2 4 - - - - - - - 9.5 1017.1 0.4
05/03:30am WSW 2 3 - - - - - - - 9.4 1017.1 0.4
05/03:00am WSW 5 7 - - - - - - - 10.2 1017.2 0.4
05/02:30am SW 9 12 - - - - - - - 10.3 1017.3 0.4
05/02:00am WSW 8 11 - - - - - - - 10.4 1017.1 0.4
05/01:30am WSW 12 17 - - - - - - - 10.6 1017.0 0.4
05/01:00am WSW 9 15 - - - - - - - 10.6 1016.9 0.4
05/12:30am WSW 8 12 - - - - - - - 10.5 1016.8 0.4
05/12:00am WSW 12 16 - - - - - - - 10.5 1016.9 0.4
 
Date/Time
EST
Wind Sea
Height
m
Swell Vis
km
Cloud Weather Temp
°C
Press
hPa
Rain since
9am
mm
Dir  Spd
kts
Gust
kts
Height
m
Period
s
Dir
04/11:30pm SW 8 12 - - - - - - - 10.5 1016.8 0.4
04/11:00pm WSW 10 14 - - - - - - - 10.3 1016.7 0.4
04/10:30pm SW 7 10 - - - - - - - 10.1 1016.7 0.4
04/10:00pm SSW 3 5 - - - - - - - 9.6 1016.6 0.4
04/09:30pm SSW 5 7 - - - - - - - 9.6 1016.7 0.4
04/09:00pm SSW 6 10 - - - - - - - 9.1 1016.5 0.4
04/08:30pm SSW 9 14 - - - - - - - 9.8 1016.4 0.4
04/08:00pm SSW 8 14 - - - - - - - 10.4 1015.9 0.4
04/07:30pm SSW 10 15 - - - - - - - 10.5 1015.7 0.4
04/07:00pm SSW 8 11 - - - - - - - 10.4 1015.4 0.4
04/06:30pm SSW 8 14 - - - - - - - 10.2 1015.0 0.4
04/06:00pm SSW 8 16 - - - - - - - 10.3 1014.5 0.4
04/05:30pm SSW 7 12 - - - - - - - 10.3 1014.3 0.4
04/05:00pm SSW 9 13 - - - - - - - 10.4 1014.0 0.4
04/04:30pm SSW 9 15 - - - - - - - 10.6 1013.8 0.4
04/04:00pm SSW 8 12 - - - - - - - 10.8 1013.5 0.4
04/03:30pm SSW 7 12 - - - - - - - 11.6 1013.2 0.4
04/03:00pm SSW 7 11 - - - - - - - 11.1 1013.0 0.4
04/02:30pm S 3 6 - - - - - - - 11.3 1012.8 0.4
04/02:00pm NE 2 4 - - - - - - - 10.8 1012.7 0.4
04/01:30pm N 2 3 - - - - - - - 10.5 1012.7 0.4
04/01:00pm NE 2 4 - - - - - - - 10.6 1012.8 0.4
04/12:30pm SW 2 5 - - - - - - - 10.7 1012.7 0.2
04/12:00pm SSW 9 13 - - - - - - - 11.0 1012.8 0.0
04/11:30am WSW 13 17 - - - - - - - 11.7 1012.5 0.0
04/11:00am WSW 9 16 - - - - - - - 11.6 1012.6 0.0
04/10:30am WSW 9 12 - - - - - - - 11.1 1012.6 0.0
04/10:00am W 9 12 - - - - - - - 10.7 1012.6 0.0
04/09:30am WSW 8 11 - - - - - - - 10.6 1012.4 0.0
04/09:00am WSW 5 9 - - - - - - - 9.4 1012.5 0.0
04/08:30am SSE 1 2 - - - - - - - 8.0 1012.4 0.0
04/08:00am NW 6 7 - - - - - - - 8.0 1012.3 0.0
04/07:30am NNW 4 6 - - - - - - - 7.9 1012.0 0.0
04/07:00am NNW 5 6 - - - - - - - 8.0 1012.2 0.0
04/06:30am N 2 2 - - - - - - - 8.0 1012.6 0.0
04/06:00am NNW 3 6 - - - - - - - 8.5 1012.8 0.0
04/05:30am NNW 4 6 - - - - - - - 8.4 1013.1 0.0
04/05:00am NNW 4 8 - - - - - - - 8.2 1013.1 0.0
04/04:30am NNW 3 5 - - - - - - - 8.0 1013.6 0.0
04/04:00am NW 5 7 - - - - - - - 8.0 1013.8 0.0
04/03:30am WNW 10 13 - - - - - - - 7.6 1014.1 0.0
04/03:00am W 11 14 - - - - - - - 7.3 1014.5 0.0
04/02:30am W 13 17 - - - - - - - 7.6 1014.8 0.0
04/02:00am W 14 20 - - - - - - - 7.7 1014.6 0.0
04/01:30am W 14 19 - - - - - - - 7.9 1015.0 0.0
04/01:00am WSW 13 18 - - - - - - - 7.9 1014.9 0.0
04/12:30am WSW 11 17 - - - - - - - 7.8 1014.9 0.0
04/12:00am W 10 13 - - - - - - - 8.0 1015.0 0.0
 
Date/Time
EST
Wind Sea
Height
m
Swell Vis
km
Cloud Weather Temp
°C
Press
hPa
Rain since
9am
mm
Dir  Spd
kts
Gust
kts
Height
m
Period
s
Dir
03/11:30pm WSW 9 14 - - - - - - - 8.0 1015.1 0.0
03/11:00pm WSW 10 14 - - - - - - - 8.0 1014.9 0.0
03/10:30pm W 12 15 - - - - - - - 7.9 1014.7 0.0
03/10:00pm W 10 13 - - - - - - - 7.8 1014.7 0.0
03/09:30pm W 12 15 - - - - - - - 8.2 1015.0 0.0
03/09:00pm WSW 11 15 - - - - - - - 7.9 1014.8 0.0
03/08:30pm WSW 10 13 - - - - - - - 8.0 1014.7 0.0
03/08:00pm WSW 12 15 - - - - - - - 8.0 1014.4 0.0
03/07:30pm W 13 15 - - - - - - - 8.0 1014.1 0.0
03/07:00pm WNW 10 12 - - - - - - - 7.9 1013.8 0.0
03/06:30pm WNW 8 10 - - - - - - - 7.6 1013.7 0.0
03/06:00pm WNW 5 8 - - - - - - - 7.7 1013.5 0.0
03/05:30pm WSW 7 9 - - - - - - - 7.7 1013.1 0.0
03/05:00pm SW 6 9 - - - - - - - 7.4 1013.0 0.0
03/04:30pm SW 7 10 - - - - - - - 8.5 1012.5 0.0
03/04:00pm W 8 11 - - - - - - - 8.9 1012.2 0.0
03/03:30pm W 11 15 - - - - - - - 9.0 1011.8 0.0
03/03:00pm W 13 15 - - - - - - - 9.6 1011.7 0.0
03/02:30pm WSW 12 16 - - - - - - - 10.1 1011.3 0.0
03/02:00pm W 9 11 - - - - - - - 10.3 1011.2 0.0
03/01:30pm W 8 11 - - - - - - - 9.8 1011.0 0.0
03/01:00pm W 11 14 - - - - - - - 9.5 1010.8 0.0
03/12:30pm W 15 18 - - - - - - - 9.5 1010.6 0.0
03/12:00pm W 15 18 - - - - - - - 8.6 1010.3 0.0
03/11:30am W 13 15 - - - - - - - 8.0 1010.5 0.0
03/11:00am WNW 13 17 - - - - - - - 7.6 1010.5 0.0
03/10:30am W 15 17 - - - - - - - 8.0 1010.1 0.0
03/10:00am W 7 11 - - - - - - - 8.6 1009.9 0.0
03/09:30am W 9 13 - - - - - - - 8.4 1009.6 0.0
03/09:00am W 15 19 - - - - - - - 8.1 1008.9 0.0
03/08:30am W 12 15 - - - - - - - 8.6 1008.5 0.0
03/08:00am WNW 9 13 - - - - - - - 8.4 1008.1 0.0
03/07:30am NW 7 12 - - - - - - - 8.4 1007.7 0.0
03/07:00am WNW 18 24 - - - - - - - 8.6 1006.8 0.0
03/06:30am NW 13 18 - - - - - - - 8.3 1006.8 0.0
03/06:00am NNW 7 12 - - - - - - - 8.3 1007.2 0.0
03/05:30am NNW 8 13 - - - - - - - 8.3 1007.0 0.0
03/05:00am NW 12 19 - - - - - - - 8.2 1006.7 0.0
03/04:30am NNW 4 8 - - - - - - - 8.2 1007.1 0.0
03/04:00am N 4 8 - - - - - - - 8.6 1006.9 0.0
03/03:30am WNW 8 13 - - - - - - - 8.3 1007.3 0.0
03/03:00am W 10 16 - - - - - - - 8.6 1006.9 0.0
03/02:30am WNW 12 16 - - - - - - - 9.0 1006.8 0.0
03/02:00am NW 8 13 - - - - - - - 9.0 1006.9 0.0
03/01:30am NW 9 14 - - - - - - - 9.1 1006.6 0.0
03/01:00am WNW 5 7 - - - - - - - 8.9 1006.3 0.0
03/12:30am NW 8 11 - - - - - - - 9.2 1006.3 0.0
03/12:00am NW 7 11 - - - - - - - 9.4 1006.1 0.0
 
Date/Time
EST
Wind Sea
Height
m
Swell Vis
km
Cloud Weather Temp
°C
Press
hPa
Rain since
9am
mm
Dir  Spd
kts
Gust
kts
Height
m
Period
s
Dir
02/11:30pm NW 6 8 - - - - - - - 9.3 1005.9 0.0
02/11:00pm NW 7 10 - - - - - - - 9.9 1005.8 0.0
02/10:30pm WNW 8 12 - - - - - - - 10.0 1005.6 0.0
02/10:00pm NW 7 11 - - - - - - - 10.5 1005.3 0.0
02/09:30pm W 11 15 - - - - - - - 9.8 1005.1 0.0
02/09:00pm W 12 14 - - - - - - - 9.5 1004.5 0.0
02/08:30pm WNW 10 13 - - - - - - - 10.4 1004.8 0.0
02/08:00pm WNW 15 19 - - - - - - - 10.5 1003.9 0.0
02/07:30pm WNW 16 23 - - - - - - - 10.8 1003.4 0.0
02/07:00pm WNW 9 14 - - - - - - - 10.5 1003.2 0.0
02/06:30pm NW 9 13 - - - - - - - 10.8 1002.9 0.0
02/06:00pm NW 9 16 - - - - - - - 10.8 1002.5 0.0
02/05:30pm NNW 9 11 - - - - - - - 11.0 1002.5 0.0
02/05:00pm NW 8 10 - - - - - - - 11.4 1002.1 0.0
02/04:30pm NW 9 14 - - - - - - - 11.5 1001.7 0.0
02/04:00pm NW 11 15 - - - - - - - 12.0 1001.2 0.0
02/03:30pm WNW 6 11 - - - - - - - 12.6 1001.0 0.0
02/03:00pm WNW 9 15 - - - - - - - 12.2 1000.9 0.0
02/02:30pm NW 12 19 - - - - - - - 12.3 1000.6 0.0
02/02:00pm WNW 13 16 - - - - - - - 12.1 1000.0 0.0
02/01:30pm W 16 23 - - - - - - - 12.5 1000.0 0.0
02/01:27pm W 17 28 - - - - - - - 12.5 999.9 0.0
02/01:00pm WNW 17 24 - - - - - - - 12.6 999.9 0.0
02/12:30pm W 10 15 - - - - - - - 12.5 999.8 0.0
02/12:00pm W 12 19 - - - - - - - 11.6 999.4 0.0

Other formats

Comma delimited format used in spreadsheet applications
http://www.bom.gov.au/fwo/IDT60701/IDT60701.94988.axf

JavaScript Object Notation format (JSON) in row-major order
http://www.bom.gov.au/fwo/IDT60701/IDT60701.94988.json

Data quality

Most of these data are generated automatically and are frequently updated. Quality checks on data are not normally performed. It is possible for incorrect values to appear. Refer to information at About Latest Weather Observations and please check the disclaimer before using these data.